Latest Weather Observations for Coondewanna

IDW60801

Issued at 9:02 pm WST Tuesday 21 April 2015 (issued every 30 minutes, with the page automatically refreshed every 10 minutes)

About weather observations | Map of weather stations | Latest weather observations for WA | Other Formats
Station Details ID: 505051 Name: COONDEWANNA Lat: -22.96 Lon: 118.81 Height: 697.63 m
Data from the previous 72 hours. | See also: Recent months for locations in Western Australia
Date/Time
WST
Temp
°C
App
Temp
°C
Dew
Point
Rel
Hum
%
Delta-T
°C
Wind Press
QNH
hPa
Press
MSL
hPa
Rain
since 9 am
mm
Dir
 
Spd
km/h
Gust
km/h
Spd
kts
Gust
kts
21/09:00pm 11.8 8.3 10.9 94 0.5 E 20 24 11 13 1018.5 1014.1 17.0
21/08:30pm 11.9 8.6 10.8 93 0.6 ENE 19 28 10 15 1018.8 1014.4 12.8
21/08:00pm 12.0 9.1 10.9 93 0.6 E 17 26 9 14 1018.1 1013.8 10.2
21/07:34pm 11.8 7.9 10.9 94 0.5 E 22 32 12 17 1017.7 1013.3 8.6
21/07:30pm 11.8 7.5 10.9 94 0.5 E 24 32 13 17 1017.6 1013.2 8.4
21/07:29pm 11.8 7.5 10.9 94 0.5 E 24 32 13 17 1017.6 1013.2 8.2
21/07:00pm 12.1 7.9 11.0 93 0.6 E 24 35 13 19 1017.5 1013.1 6.8
21/06:30pm 12.2 7.7 11.3 94 0.5 E 26 35 14 19 1017.4 1013.0 5.2
21/06:00pm 12.3 8.5 11.0 92 0.7 E 22 30 12 16 1017.1 1012.7 3.8
21/05:30pm 12.4 8.6 11.1 92 0.7 E 22 33 12 18 1016.9 1012.5 3.2
21/05:00pm 12.2 7.9 10.9 92 0.7 E 24 37 13 20 1016.5 1012.1 2.8
21/04:30pm 12.4 8.6 11.0 91 0.8 E 22 30 12 16 1016.5 1012.1 2.4
21/04:00pm 12.5 7.6 11.2 92 0.7 E 28 35 15 19 1016.4 1012.0 2.0
21/03:30pm 12.6 9.1 11.0 90 0.9 ENE 20 32 11 17 1017.0 1012.6 2.0
21/03:00pm 12.7 7.4 11.3 91 0.8 E 30 39 16 21 1016.9 1012.5 1.8
21/02:30pm 12.7 8.5 11.1 90 0.9 ENE 24 35 13 19 1017.1 1012.7 1.2
21/02:00pm 12.8 7.7 10.7 87 1.1 ENE 28 43 15 23 1017.3 1012.9 1.0
21/01:30pm 13.2 7.4 10.9 86 1.3 ENE 32 41 17 22 1017.4 1013.0 0.8
21/01:00pm 12.9 7.1 10.8 87 1.1 ENE 32 44 17 24 1017.6 1013.2 0.8
21/12:44pm 13.1 8.3 11.7 91 0.8 ENE 28 46 15 25 1017.7 1013.3 0.8
21/12:30pm 13.0 7.4 11.4 90 0.9 ENE 32 46 17 25 1017.8 1013.4 0.8
21/12:00pm 13.0 7.4 11.6 91 0.8 E 32 44 17 24 1017.9 1013.6 0.8
21/11:30am 13.2 7.0 11.4 89 1.0 ENE 35 50 19 27 1018.4 1014.0 0.8
21/11:00am 13.4 7.9 11.8 90 0.9 ENE 32 43 17 23 1018.8 1014.4 0.6
21/10:30am 13.2 7.7 11.8 91 0.8 E 32 43 17 23 1019.1 1014.7 0.6
21/10:00am 13.4 8.3 11.8 90 0.9 E 30 41 16 22 1019.4 1015.1 0.6
21/09:30am 13.3 7.8 11.7 90 0.9 E 32 43 17 23 1019.6 1015.3 0.4
21/09:00am 13.4 8.2 11.6 89 1.0 E 30 43 16 23 1019.6 1015.3 2.0
21/08:30am 13.3 8.2 11.9 91 0.8 E 30 43 16 23 1019.8 1015.4 2.0
21/08:00am 13.0 7.8 11.6 91 0.8 E 30 41 16 22 1019.4 1015.1 2.0
21/07:30am 12.8 8.0 11.5 92 0.7 E 28 41 15 22 1019.4 1015.1 2.0
21/07:00am 12.6 7.4 11.5 93 0.6 E 30 35 16 19 1019.4 1015.1 2.0
21/06:30am 12.3 7.0 11.2 93 0.6 E 30 39 16 21 1019.3 1015.0 2.0
21/06:00am 12.4 7.2 11.5 94 0.5 E 30 39 16 21 1019.4 1015.1 1.6
21/05:30am 12.8 9.2 11.9 94 0.5 ENE 22 28 12 15 1019.8 1015.4 1.4
21/05:00am 12.7 7.5 11.6 93 0.6 ENE 30 39 16 21 1019.6 1015.3 1.4
21/04:30am 12.4 8.7 11.5 94 0.5 E 22 30 12 16 1019.8 1015.4 1.0
21/04:07am 12.5 9.1 11.4 93 0.6 E 20 32 11 17 1020.0 1015.6 0.8
21/04:03am 12.5 8.8 11.4 93 0.6 E 22 28 12 15 1020.0 1015.6 0.8
21/04:00am 12.5 9.1 11.4 93 0.6 E 20 28 11 15 1020.0 1015.6 0.8
21/03:33am 12.6 9.5 11.7 94 0.5 E 19 28 10 15 1019.6 1015.3 0.6
21/03:30am 12.7 9.5 11.8 94 0.5 E 20 28 11 15 1019.6 1015.3 0.6
21/03:25am 12.7 9.1 11.8 94 0.5 E 22 28 12 15 1019.5 1015.2 0.6
21/03:09am 12.7 9.1 11.8 94 0.5 E 22 28 12 15 1019.5 1015.2 0.4
21/03:00am 12.7 9.5 11.8 94 0.5 E 20 32 11 17 1019.5 1015.2 0.4
21/02:53am 12.8 9.2 11.7 93 0.6 E 22 32 12 17 1019.5 1015.2 0.4
21/02:30am 13.1 9.1 11.7 91 0.8 E 24 28 13 15 1019.5 1015.2 0.4
21/02:00am 13.4 9.3 11.3 87 1.2 E 24 33 13 18 1019.4 1015.1 0.4
21/01:30am 13.2 10.2 11.8 91 0.8 ESE 19 26 10 14 1019.6 1015.3 0.4
21/01:00am 13.3 10.0 11.7 90 0.9 E 20 30 11 16 1020.0 1015.6 0.4
21/12:30am 13.3 9.3 11.9 91 0.8 E 24 35 13 19 1020.0 1015.6 0.4
21/12:18am 13.3 9.7 11.9 91 0.8 E 22 33 12 18 1019.6 1015.3 0.4
21/12:05am 13.4 10.5 12.3 93 0.6 E 19 28 10 15 1019.8 1015.4 0.4
21/12:00am 13.4 10.3 12.3 93 0.6 E 20 28 11 15 1019.8 1015.4 0.4
 
Date/Time
WST
Temp
°C
App
Temp
°C
Dew
Point
Rel
Hum
%
Delta-T
°C
Wind Press
QNH
hPa
Press
MSL
hPa
Rain
since 9 am
mm
Dir
 
Spd
km/h
Gust
km/h
Spd
kts
Gust
kts
20/11:53pm 13.5 10.0 12.1 91 0.8 E 22 30 12 16 1019.9 1015.5 0.4
20/11:30pm 13.7 10.9 12.6 93 0.6 E 19 26 10 14 1020.4 1016.0 0.2
20/11:25pm 13.7 10.7 12.6 93 0.6 E 20 30 11 16 1020.4 1016.0 0.2
20/11:00pm 13.8 10.9 12.4 91 0.8 ESE 19 28 10 15 1021.0 1016.7 0.2
20/10:30pm 14.0 10.1 12.2 89 1.0 E 24 32 13 17 1020.8 1016.5 0.0
20/10:00pm 14.9 10.9 11.9 82 1.7 E 24 35 13 19 1020.8 1016.5 0.0
20/09:30pm 15.7 10.8 11.3 75 2.4 E 28 39 15 21 1021.0 1016.7 0.0
20/09:00pm 15.8 10.0 11.4 75 2.4 ESE 33 50 18 27 1021.0 1016.7 0.0
20/08:55pm 15.9 10.2 11.3 74 2.6 ESE 32 50 17 27 1021.0 1016.7 0.0
20/08:40pm 16.0 11.5 11.4 74 2.6 E 26 37 14 20 1021.1 1016.8 0.0
20/08:30pm 16.1 12.0 11.3 73 2.7 E 24 35 13 19 1020.6 1016.3 0.0
20/08:00pm 16.2 9.9 11.2 72 2.8 E 35 50 19 27 1020.8 1016.5 0.0
20/07:46pm 16.5 11.5 11.0 70 3.1 E 28 46 15 25 1020.4 1016.0 0.0
20/07:30pm 16.7 12.1 11.2 70 3.1 E 26 41 14 22 1020.8 1016.5 0.0
20/07:02pm 16.9 11.9 11.0 68 3.3 E 28 46 15 25 1020.3 1015.9 0.0
20/07:00pm 16.9 12.3 11.0 68 3.3 E 26 39 14 21 1020.3 1015.9 0.0
20/06:30pm 17.2 13.9 11.0 67 3.5 ESE 19 24 10 13 1020.5 1016.1 0.0
20/06:00pm 17.2 13.8 11.2 68 3.3 E 20 30 11 16 1019.5 1015.2 0.0
20/05:30pm 17.4 12.4 11.0 66 3.6 E 28 39 15 21 1019.4 1015.1 0.0
20/05:00pm 17.4 13.2 11.0 66 3.6 E 24 30 13 16 1019.5 1015.2 0.0
20/04:30pm 17.4 13.0 10.5 64 3.8 E 24 35 13 19 1018.6 1014.2 0.0
20/04:00pm 17.6 12.9 10.7 64 3.8 E 26 35 14 19 1018.8 1014.4 0.0
20/03:30pm 17.6 12.5 10.5 63 3.9 E 28 39 15 21 1018.8 1014.4 0.0
20/03:00pm 17.6 12.4 10.2 62 4.1 E 28 37 15 20 1018.8 1014.4 0.0
20/02:47pm 17.8 12.2 10.2 61 4.2 E 30 48 16 26 1018.9 1014.5 0.0
20/02:30pm 17.6 11.4 10.0 61 4.2 E 33 43 18 23 1018.8 1014.4 0.0
20/02:00pm 17.9 13.5 10.3 61 4.2 E 24 30 13 16 1019.4 1015.1 0.0
20/01:30pm 17.8 12.1 9.9 60 4.3 ENE 30 41 16 22 1019.3 1015.0 0.0
20/01:00pm 18.0 12.8 10.1 60 4.3 E 28 39 15 21 1019.8 1015.4 0.0
20/12:30pm 17.6 13.1 10.0 61 4.2 E 24 32 13 17 1020.4 1016.0 0.0
20/12:00pm 17.5 12.6 9.9 61 4.1 E 26 33 14 18 1021.0 1016.7 0.0
20/11:30am 17.3 12.7 9.5 60 4.2 E 24 33 13 18 1021.1 1016.8 0.0
20/11:00am 16.9 10.8 9.6 62 3.9 E 32 43 17 23 1021.9 1017.6 0.0
20/10:30am 16.5 10.3 9.4 63 3.8 E 32 41 17 22 1022.2 1017.9 0.0
20/10:00am 16.4 10.0 9.3 63 3.8 E 33 44 18 24 1022.3 1018.0 0.0
20/09:30am 16.7 10.5 9.9 64 3.7 E 33 54 18 29 1022.4 1018.1 0.0
20/09:20am 16.2 10.0 9.4 64 3.7 E 32 50 17 27 1021.7 1017.3 0.0
20/09:00am 16.0 10.4 10.3 69 3.1 E 30 43 16 23 1021.9 1017.6 4.6
20/08:30am 15.5 9.5 10.1 70 2.9 E 32 46 17 25 1022.0 1017.7 4.6
20/08:00am 15.4 10.9 10.2 71 2.8 E 24 35 13 19 1022.6 1018.3 4.6
20/07:30am 15.2 9.9 10.0 71 2.8 E 28 37 15 20 1021.8 1017.4 4.6
20/07:00am 15.2 12.0 10.0 71 2.8 E 17 24 9 13 1022.4 1018.1 4.6
20/06:30am 15.1 12.7 9.9 71 2.8 ESE 13 17 7 9 1021.7 1017.3 4.6
20/06:00am 15.2 13.1 9.6 69 3.0 E 11 17 6 9 1021.7 1017.3 4.6
20/05:30am 15.8 11.9 9.5 66 3.4 E 20 32 11 17 1021.7 1017.3 4.4
20/05:00am 16.8 12.9 8.5 58 4.4 ENE 19 26 10 14 1021.5 1017.1 4.4
20/04:30am 16.9 13.7 8.6 58 4.4 ENE 15 20 8 11 1021.3 1016.9 4.4
20/04:00am 16.9 13.4 8.8 59 4.3 ENE 17 28 9 15 1021.0 1016.7 4.4
20/03:30am 17.3 13.5 9.2 59 4.4 E 19 28 10 15 1020.7 1016.4 4.4
20/03:00am 17.2 14.2 9.4 60 4.2 E 15 22 8 12 1020.5 1016.1 4.4
20/02:30am 17.1 15.4 10.0 63 3.9 E 9 17 5 9 1020.7 1016.4 4.4
20/02:00am 16.9 15.1 11.0 68 3.3 E 11 19 6 10 1020.9 1016.6 4.4
20/01:30am 16.9 14.0 11.0 68 3.3 E 17 24 9 13 1021.0 1016.7 4.4
20/01:00am 16.8 15.7 11.9 73 2.8 E 9 13 5 7 1021.7 1017.3 4.4
20/12:30am 16.9 15.6 12.4 75 2.6 ENE 11 19 6 10 1022.0 1017.7 4.4
20/12:00am 16.8 15.6 12.9 78 2.2 NE 11 19 6 10 1022.1 1017.8 4.4
 
Date/Time
WST
Temp
°C
App
Temp
°C
Dew
Point
Rel
Hum
%
Delta-T
°C
Wind Press
QNH
hPa
Press
MSL
hPa
Rain
since 9 am
mm
Dir
 
Spd
km/h
Gust
km/h
Spd
kts
Gust
kts
19/11:30pm 16.8 16.1 13.1 79 2.1 NE 9 15 5 8 1022.0 1017.7 4.4
19/11:00pm 16.7 16.0 13.2 80 2.0 E 9 15 5 8 1022.4 1018.1 4.4
19/10:30pm 16.6 15.2 13.5 82 1.8 ENE 13 17 7 9 1022.4 1018.1 4.4
19/10:00pm 16.4 15.9 13.9 85 1.5 ESE 9 13 5 7 1022.5 1018.2 4.2
19/09:30pm 16.4 16.0 14.1 86 1.4 ENE 9 15 5 8 1022.7 1018.4 4.2
19/09:00pm 16.2 16.2 14.2 88 1.2 ENE 7 11 4 6 1022.7 1018.4 4.2
19/08:30pm 16.0 14.1 14.2 89 1.1 ENE 17 24 9 13 1022.7 1018.4 4.2
19/08:00pm 16.0 14.5 14.2 89 1.1 E 15 24 8 13 1023.0 1018.6 4.2
19/07:30pm 16.0 14.2 14.4 90 0.9 E 17 26 9 14 1023.0 1018.6 4.0
19/07:00pm 16.0 14.2 14.5 91 0.9 E 17 28 9 15 1023.1 1018.7 3.8
19/06:30pm 16.0 13.7 14.0 88 1.2 E 19 28 10 15 1022.5 1018.2 3.8
19/06:00pm 16.2 13.6 13.7 85 1.5 E 20 28 11 15 1022.2 1017.9 3.4
19/05:30pm 16.5 15.4 14.2 86 1.4 E 13 17 7 9 1022.1 1017.8 3.2
19/05:00pm 16.6 15.6 14.6 88 1.2 ENE 13 19 7 10 1021.7 1017.3 3.0
19/04:30pm 16.4 15.0 14.6 89 1.1 E 15 20 8 11 1021.6 1017.2 3.0
19/04:00pm 16.5 15.5 14.7 89 1.1 E 13 20 7 11 1021.4 1017.0 2.8
19/03:30pm 16.5 14.8 14.7 89 1.1 E 17 26 9 14 1021.7 1017.3 2.4
19/03:01pm 16.7 13.3 14.7 88 1.2 E 26 37 14 20 1021.1 1016.8 2.2
19/03:00pm 16.7 13.7 14.7 88 1.2 E 24 37 13 20 1021.3 1016.9 2.2
19/02:30pm 16.5 14.9 14.9 90 1.0 E 17 22 9 12 1021.4 1017.0 2.2
19/02:00pm 16.2 13.5 14.6 90 0.9 E 22 30 12 16 1021.4 1017.0 2.2
19/01:30pm 16.0 14.2 14.4 90 0.9 E 17 24 9 13 1021.8 1017.4 2.2
19/01:00pm 15.9 14.4 14.1 89 1.1 E 15 24 8 13 1022.2 1017.9 2.0
19/12:43pm 15.8 14.6 14.0 89 1.1 E 13 19 7 10 1022.3 1018.0 2.0
19/12:30pm 15.7 14.0 13.7 88 1.2 E 15 20 8 11 1022.5 1018.2 1.8
19/12:00pm 15.5 14.0 13.2 86 1.3 E 13 22 7 12 1023.0 1018.6 1.2
19/11:30am 15.5 13.1 12.6 83 1.7 ENE 17 24 9 13 1023.3 1019.0 0.6
19/11:00am 16.2 13.3 12.2 77 2.3 ENE 19 26 10 14 1023.3 1019.0 0.0
19/10:30am 18.2 13.9 10.6 61 4.2 ENE 24 33 13 18 1023.3 1019.0 0.0
19/10:00am 19.6 15.1 8.6 49 5.9 ENE 22 32 12 17 1022.9 1018.5 0.0
19/09:30am 19.5 14.5 8.2 48 6.1 ENE 24 33 13 18 1022.6 1018.3 0.0
19/09:00am 19.3 14.7 8.3 49 5.9 E 22 32 12 17 1022.6 1018.3 1.6
19/08:30am 18.8 15.7 8.7 52 5.4 E 15 22 8 12 1022.2 1017.9 1.6
19/08:00am 18.3 14.6 8.0 51 5.4 E 17 26 9 14 1021.8 1017.4 1.6
19/07:30am 18.0 14.7 8.0 52 5.3 E 15 20 8 11 1021.7 1017.3 1.6
19/07:00am 17.8 14.7 7.2 50 5.5 E 13 20 7 11 1021.1 1016.8 1.6
19/06:30am 17.7 14.4 6.6 48 5.7 E 13 19 7 10 1020.5 1016.1 1.6
19/06:00am 17.7 14.6 7.2 50 5.4 E 13 17 7 9 1020.1 1015.7 1.6
19/05:30am 17.7 14.9 6.9 49 5.6 E 11 15 6 8 1019.9 1015.5 1.6
19/05:00am 18.0 15.1 6.5 47 5.9 ENE 11 17 6 9 1019.6 1015.3 1.6
19/04:30am 17.9 15.1 7.0 49 5.7 ENE 11 15 6 8 1019.6 1015.3 1.6
19/04:00am 18.1 15.7 7.2 49 5.7 E 9 13 5 7 1019.8 1015.4 1.6
19/03:30am 17.8 15.4 8.6 55 4.9 E 11 17 6 9 1019.5 1015.2 1.6
19/03:00am 17.9 15.3 9.5 58 4.6 E 13 17 7 9 1019.5 1015.2 1.6
19/02:30am 16.5 17.5 13.2 81 1.9 CALM 0 0 0 0 1020.0 1015.6 1.6
19/02:00am 17.2 16.1 12.1 72 2.9 NE 9 11 5 6 1020.0 1015.6 1.6
19/01:30am 16.8 15.4 12.3 75 2.6 ENE 11 13 6 7 1020.1 1015.7 1.6
19/01:00am 16.9 15.6 12.6 76 2.5 ESE 11 13 6 7 1020.7 1016.4 1.6
19/12:30am 16.5 16.4 13.4 82 1.8 ESE 6 9 3 5 1020.5 1016.1 1.6
19/12:00am 16.5 16.2 13.4 82 1.8 ESE 7 9 4 5 1020.7 1016.4 1.6
 
Date/Time
WST
Temp
°C
App
Temp
°C
Dew
Point
Rel
Hum
%
Delta-T
°C
Wind Press
QNH
hPa
Press
MSL
hPa
Rain
since 9 am
mm
Dir
 
Spd
km/h
Gust
km/h
Spd
kts
Gust
kts
18/11:30pm 16.6 16.2 13.1 80 2.0 ESE 7 7 4 4 1020.6 1016.3 1.6
18/11:00pm 17.4 17.2 11.7 69 3.2 ESE 4 9 2 5 1021.1 1016.8 1.4
18/10:30pm 17.2 17.8 11.9 71 3.0 CALM 0 0 0 0 1021.7 1017.3 1.4
18/10:00pm 17.1 17.0 13.2 78 2.3 ESE 6 7 3 4 1021.9 1017.6 1.4
18/09:30pm 17.2 16.7 13.9 81 1.9 ESE 9 11 5 6 1022.2 1017.9 1.4

Other Formats:

Comma delimited format used in spreadsheet applications
http://www.bom.gov.au/fwo/IDW60801/IDW60801.99312.axf

JavaScript Object Notation format (JSON) in row-major order
http://www.bom.gov.au/fwo/IDW60801/IDW60801.99312.json